Nordestina, Brazil
Current Conditions -  °F | °C
As of 1:00 PM on Friday 24 Oct 2014 (Local Time) from SBPL Reporting Station
Broken Clouds Broken Clouds  
Wind Chill: 91°   Ceiling: 2700
Heat Index: 93°   Visibility: 6mi
Dew Point: 64°   Wind: 12mph
Humidity: 41%   Direction: 120°ESE
Pressure: 29.94"   Gusts: NA
Location:  10.83°S, 39.42°W
Report Text: SBPL 241600Z 12010KT 9999 BKN027 33/18 Q1014
Loading
Personal Weather Stations






























Interactive Weather Map
Tropical Storm Tracking
New forecast layout! Learn more

10-Day Weather Forecast

Advertisements
Track Severe Weather on mobile